Time;durP1;ratioP1;P1;durP2;ratioP2;P2;SDS_P1;SDS_P2;PMS_P1;PMS_P2;Temp;Humidity;BMP_temperature;BMP_pressure;BME280_temperature;BME280_humidity;BME280_pressure;Samples;Min_cycle;Max_cycle;Signal;HPM_P1;HPM_P2
2023/08/11 00:00:44;;;;;;;;;;;;;;;;;;6296010;28;19928;-55
2023/08/11 00:04:05;;;;;;;;;;;;;;;;;;6300960;28;19931;-55
2023/08/11 00:07:06;;;;;;;;;;;;;;;;;;6308667;28;19928;-56
2023/08/11 00:10:07;;;;;;;;;;;;;;;;;;6300043;28;19927;-58
2023/08/11 00:13:12;;;;;;;;;;;;;;;;;;6300121;28;19928;-58
2023/08/11 00:16:13;;;;;;;;;;;;;;;;;;6300330;28;20005;-56
2023/08/11 00:19:14;;;;;;;;;;;;;;;;;;6295241;28;19932;-52
2023/08/11 00:22:14;;;;;;;;;;;;;;;;;;6296667;28;19924;-57
2023/08/11 00:25:15;;;;;;;;;;;;;;;;;;6298491;28;19935;-56
2023/08/11 00:28:15;;;;;;;;;;;;;;;;;;6306629;28;19923;-57
2023/08/11 00:31:16;;;;;;;;;;;;;;;;;;6300522;28;19963;-53
2023/08/11 00:34:16;;;;;;;;;;;;;;;;;;6297202;28;20670;-55
2023/08/11 00:37:17;;;;;;;;;;;;;;;;;;6300672;28;20291;-52
2023/08/11 00:40:18;;;;;;;;;;;;;;;;;;6301366;28;19924;-54
2023/08/11 00:43:18;;;;;;;;;;;;;;;;;;6302962;28;19985;-53
2023/08/11 00:46:20;;;;;;;;;;;;;;;;;;6298066;28;19920;-58
2023/08/11 00:49:20;;;;;;;;;;;;;;;;;;6300155;28;20268;-54
2023/08/11 00:52:21;;;;;;;;;;;;;;;;;;6298398;28;19924;-56
2023/08/11 00:55:21;;;;;;;;;;;;;;;;;;6301147;28;19927;-51
2023/08/11 00:58:22;;;;;;;;;;;;;;;;;;6301023;28;19985;-57
2023/08/11 01:01:24;;;;;;;;;;;;;;;;;;6299148;28;19926;-50
2023/08/11 01:04:24;;;;;;;;;;;;;;;;;;6300316;28;20347;-53
2023/08/11 01:07:31;;;;;;;;;;;;;;;;;;6301617;28;19993;-52
2023/08/11 01:10:34;;;;;;;;;;;;;;;;;;6310439;28;20359;-57
2023/08/11 01:13:36;;;;;;;;;;;;;;;;;;6300556;28;19923;-56
2023/08/11 01:16:37;;;;;;;;;;;;;;;;;;6299214;28;20287;-52
2023/08/11 01:19:38;;;;;;;;;;;;;;;;;;6299384;28;19927;-53
2023/08/11 01:22:40;;;;;;;;;;;;;;;;;;6300813;28;19924;-52
2023/08/11 01:25:41;;;;;;;;;;;;;;;;;;6298618;28;19928;-57
2023/08/11 01:28:42;;;;;;;;;;;;;;;;;;6297134;28;20391;-54
2023/08/11 01:31:43;;;;;;;;;;;;;;;;;;6298446;28;19931;-53
2023/08/11 01:34:43;;;;;;;;;;;;;;;;;;6298742;28;20758;-54
2023/08/11 01:37:44;;;;;;;;;;;;;;;;;;6294912;28;19924;-55
2023/08/11 01:40:45;;;;;;;;;;;;;;;;;;6299402;28;19931;-51
2023/08/11 01:43:46;;;;;;;;;;;;;;;;;;6305317;28;19941;-52
2023/08/11 01:46:47;;;;;;;;;;;;;;;;;;6307393;28;19924;-55
2023/08/11 01:49:48;;;;;;;;;;;;;;;;;;6299194;28;19931;-55
2023/08/11 01:52:48;;;;;;;;;;;;;;;;;;6297985;28;20015;-52
2023/08/11 01:55:49;;;;;;;;;;;;;;;;;;6298310;28;20009;-54
2023/08/11 01:58:50;;;;;;;;;;;;;;;;;;6299218;28;19928;-52
2023/08/11 02:01:51;;;;;;;;;;;;;;;;;;6300146;28;20283;-54
2023/08/11 02:04:52;;;;;;;;;;;;;;;;;;6296247;28;19931;-54
2023/08/11 02:07:55;;;;;;;;;;;;;;;;;;6295412;28;20374;-55
2023/08/11 02:10:55;;;;;;;;;;;;;;;;;;6301666;28;19927;-56
2023/08/11 02:13:56;;;;;;;;;;;;;;;;;;6298188;28;19924;-52
2023/08/11 02:16:56;;;;;;;;;;;;;;;;;;6296460;28;19931;-56
2023/08/11 02:20:05;;;;;;;;;;;;;;;;;;6296038;28;19956;-56
2023/08/11 02:23:05;;;;;;;;;;;;;;;;;;6295596;28;19924;-52
2023/08/11 02:26:06;;;;;;;;;;;;;;;;;;6297159;28;19970;-54
2023/08/11 02:29:07;;;;;;;;;;;;;;;;;;6294887;28;19924;-52
2023/08/11 02:32:08;;;;;;;;;;;;;;;;;;6296043;28;21231;-54
2023/08/11 02:35:10;;;;;;;;;;;;;;;;;;6298456;28;19928;-57
2023/08/11 02:38:10;;;;;;;;;;;;;;;;;;6297329;28;20367;-55
2023/08/11 02:41:11;;;;;;;;;;;;;;;;;;6296912;28;19986;-52
2023/08/11 02:44:12;;;;;;;;;;;;;;;;;;6297375;28;20330;-57
2023/08/11 02:47:12;;;;;;;;;;;;;;;;;;6295363;28;19924;-54
2023/08/11 02:50:13;;;;;;;;;;;;;;;;;;6297601;28;19930;-51
2023/08/11 02:53:14;;;;;;;;;;;;;;;;;;6313569;28;20390;-51
2023/08/11 02:56:15;;;;;;;;;;;;;;;;;;6300658;28;19924;-55
2023/08/11 02:59:15;;;;;;;;;;;;;;;;;;6295259;28;19924;-55
2023/08/11 03:02:16;;;;;;;;;;;;;;;;;;6296189;28;20378;-56
2023/08/11 03:05:17;;;;;;;;;;;;;;;;;;6296426;28;19924;-55
2023/08/11 03:08:17;;;;;;;;;;;;;;;;;;6297088;28;20808;-52
2023/08/11 03:11:18;;;;;;;;;;;;;;;;;;6297931;28;20036;-54
2023/08/11 03:14:18;;;;;;;;;;;;;;;;;;6296482;28;19924;-53
2023/08/11 03:17:19;;;;;;;;;;;;;;;;;;6295691;28;20330;-56
2023/08/11 03:20:20;;;;;;;;;;;;;;;;;;6295903;28;19920;-52
2023/08/11 03:23:20;;;;;;;;;;;;;;;;;;6295541;28;20398;-56
2023/08/11 03:26:21;;;;;;;;;;;;;;;;;;6295807;28;19920;-58
2023/08/11 03:29:21;;;;;;;;;;;;;;;;;;6292387;28;19966;-55
2023/08/11 03:32:22;;;;;;;;;;;;;;;;;;6292970;28;19958;-57
2023/08/11 03:35:22;;;;;;;;;;;;;;;;;;6295602;28;19924;-54
2023/08/11 03:38:23;;;;;;;;;;;;;;;;;;6293051;28;19928;-54
2023/08/11 03:41:24;;;;;;;;;;;;;;;;;;6294513;28;20486;-52
2023/08/11 03:44:25;;;;;;;;;;;;;;;;;;6294218;28;20379;-55
2023/08/11 03:47:25;;;;;;;;;;;;;;;;;;6295845;28;19924;-53
2023/08/11 03:50:26;;;;;;;;;;;;;;;;;;6292452;28;19982;-52
2023/08/11 03:53:26;;;;;;;;;;;;;;;;;;6297303;28;19982;-53
2023/08/11 03:56:27;;;;;;;;;;;;;;;;;;6294082;28;19947;-55
2023/08/11 03:59:27;;;;;;;;;;;;;;;;;;6294710;28;20383;-56
2023/08/11 04:02:28;;;;;;;;;;;;;;;;;;6297572;28;20280;-56
2023/08/11 04:05:28;;;;;;;;;;;;;;;;;;6294666;28;19924;-55
2023/08/11 04:08:29;;;;;;;;;;;;;;;;;;6290931;28;19927;-55
2023/08/11 04:11:32;;;;;;;;;;;;;;;;;;6294597;28;19920;-54
2023/08/11 04:14:33;;;;;;;;;;;;;;;;;;6283131;28;20011;-54
2023/08/11 04:17:33;;;;;;;;;;;;;;;;;;6300215;28;20379;-55
2023/08/11 04:20:34;;;;;;;;;;;;;;;;;;6298156;28;20298;-54
2023/08/11 04:23:34;;;;;;;;;;;;;;;;;;6300517;28;19924;-56
2023/08/11 04:26:35;;;;;;;;;;;;;;;;;;6300145;28;19966;-55
2023/08/11 04:29:35;;;;;;;;;;;;;;;;;;6300186;28;19924;-53
2023/08/11 04:32:36;;;;;;;;;;;;;;;;;;6298300;28;19935;-54
2023/08/11 04:35:38;;;;;;;;;;;;;;;;;;6301798;28;19926;-53
2023/08/11 04:38:38;;;;;;;;;;;;;;;;;;6294594;28;19977;-55
2023/08/11 04:41:38;;;;;;;;;;;;;;;;;;6300935;28;19935;-56
2023/08/11 04:44:39;;;;;;;;;;;;;;;;;;6299548;28;19927;-55
2023/08/11 04:47:40;;;;;;;;;;;;;;;;;;6298624;28;19927;-53
2023/08/11 04:50:40;;;;;;;;;;;;;;;;;;6300134;28;20019;-54
2023/08/11 04:53:41;;;;;;;;;;;;;;;;;;6306786;28;20286;-58
2023/08/11 04:56:42;;;;;;;;;;;;;;;;;;6302329;28;19923;-52
2023/08/11 04:59:43;;;;;;;;;;;;;;;;;;6295912;28;19920;-57
2023/08/11 05:02:44;;;;;;;;;;;;;;;;;;6304507;28;19943;-56
2023/08/11 05:05:45;;;;;;;;;;;;;;;;;;6299757;28;19920;-56
2023/08/11 05:08:46;;;;;;;;;;;;;;;;;;6297234;28;20007;-58
2023/08/11 05:11:46;;;;;;;;;;;;;;;;;;6298543;28;19927;-58
2023/08/11 05:14:47;;;;;;;;;;;;;;;;;;6298137;28;19939;-54
2023/08/11 05:17:47;;;;;;;;;;;;;;;;;;6297715;28;20076;-59
2023/08/11 05:20:48;;;;;;;;;;;;;;;;;;6309787;28;20298;-55
2023/08/11 05:23:48;;;;;;;;;;;;;;;;;;6300780;28;19924;-59
2023/08/11 05:26:49;;;;;;;;;;;;;;;;;;6303771;28;19934;-59
2023/08/11 05:29:50;;;;;;;;;;;;;;;;;;6317163;28;19927;-57
2023/08/11 05:32:51;;;;;;;;;;;;;;;;;;6318130;28;20046;-58
2023/08/11 05:35:51;;;;;;;;;;;;;;;;;;6318364;28;19924;-58
2023/08/11 05:38:52;;;;;;;;;;;;;;;;;;6307799;28;19920;-53
2023/08/11 05:41:52;;;;;;;;;;;;;;;;;;6314127;28;19920;-58
2023/08/11 05:44:53;;;;;;;;;;;;;;;;;;6317743;28;20302;-60
2023/08/11 05:47:53;;;;;;;;;;;;;;;;;;6314919;28;19920;-59
2023/08/11 05:50:53;;;;;;;;;;;;;;;;;;6317150;28;20363;-58
2023/08/11 05:53:54;;;;;;;;;;;;;;;;;;6313251;28;20286;-59
2023/08/11 05:56:55;;;;;;;;;;;;;;;;;;6312852;28;19923;-61
2023/08/11 05:59:56;;;;;;;;;;;;;;;;;;6296229;28;19970;-59
2023/08/11 06:02:56;;;;;;;;;;;;;;;;;;6292152;28;20661;-59
2023/08/11 06:06:01;;;;;;;;;;;;;;;;;;6292825;28;19928;-60
2023/08/11 06:09:02;;;;;;;;;;;;;;;;;;6291274;28;19924;-60
2023/08/11 06:12:04;;;;;;;;;;;;;;;;;;6292334;28;19920;-60
2023/08/11 06:15:04;;;;;;;;;;;;;;;;;;6292312;28;19920;-60
2023/08/11 06:18:05;;;;;;;;;;;;;;;;;;6291076;28;19927;-60
2023/08/11 06:21:06;;;;;;;;;;;;;;;;;;6313234;28;19924;-58
2023/08/11 06:24:06;;;;;;;;;;;;;;;;;;6309609;28;19966;-59
2023/08/11 06:27:07;;;;;;;;;;;;;;;;;;6312405;28;20312;-58
2023/08/11 06:30:07;;;;;;;;;;;;;;;;;;6316447;28;20366;-56
2023/08/11 06:36:31;;;;;;;;;;;;;;;;;;6476905;23;19924;-69
2023/08/11 06:39:32;;;;;;;;;;;;;;;;;;6269614;28;19928;-60
2023/08/11 06:42:32;;;;;;;;;;;;;;;;;;6261821;28;19927;-56
2023/08/11 06:45:33;;;;;;;;;;;;;;;;;;6259363;28;19928;-60
2023/08/11 06:48:34;;;;;;;;;;;;;;;;;;6258640;28;20678;-60
2023/08/11 06:51:34;;;;;;;;;;;;;;;;;;6256818;28;19921;-60
2023/08/11 06:54:35;;;;;;;;;;;;;;;;;;6257189;28;19990;-60
2023/08/11 06:57:36;;;;;;;;;;;;;;;;;;6258762;28;20466;-60
2023/08/11 07:00:37;;;;;;;;;;;;;;;;;;6259259;28;20254;-60
2023/08/11 07:03:38;;;;;;;;;;;;;;;;;;6262588;28;19924;-59
2023/08/11 07:06:38;;;;;;;;;;;;;;;;;;6257529;28;20326;-59
2023/08/11 07:09:39;;;;;;;;;;;;;;;;;;6257840;28;20418;-58
2023/08/11 07:12:39;;;;;;;;;;;;;;;;;;6259071;28;19975;-60
2023/08/11 07:15:40;;;;;;;;;;;;;;;;;;6259672;28;19931;-66
2023/08/11 07:18:40;;;;;;;;;;;;;;;;;;6254144;28;19943;-57
2023/08/11 07:21:41;;;;;;;;;;;;;;;;;;6260496;28;20284;-54
2023/08/11 07:24:42;;;;;;;;;;;;;;;;;;6256593;28;19974;-55
2023/08/11 07:27:42;;;;;;;;;;;;;;;;;;6253274;28;19964;-55
2023/08/11 07:30:43;;;;;;;;;;;;;;;;;;6254809;28;19928;-55
2023/08/11 07:33:43;;;;;;;;;;;;;;;;;;6261769;28;19949;-58
2023/08/11 07:36:44;;;;;;;;;;;;;;;;;;6263769;28;19921;-57
2023/08/11 07:39:44;;;;;;;;;;;;;;;;;;6274913;28;19935;-58
2023/08/11 07:42:45;;;;;;;;;;;;;;;;;;6263390;28;19950;-56
2023/08/11 07:45:45;;;;;;;;;;;;;;;;;;6259508;28;19929;-59
2023/08/11 07:48:46;;;;;;;;;;;;;;;;;;6263640;28;20327;-59
2023/08/11 07:51:46;;;;;;;;;;;;;;;;;;6260200;28;19928;-59
2023/08/11 07:54:47;;;;;;;;;;;;;;;;;;6260467;28;19939;-59
2023/08/11 07:57:47;;;;;;;;;;;;;;;;;;6261160;28;20208;-60
2023/08/11 08:00:48;;;;;;;;;;;;;;;;;;6259270;28;19987;-60
2023/08/11 08:03:48;;;;;;;;;;;;;;;;;;6264278;28;19982;-56
2023/08/11 08:06:49;;;;;;;;;;;;;;;;;;6261029;28;19982;-60
2023/08/11 08:09:49;;;;;;;;;;;;;;;;;;6266304;28;19928;-53
2023/08/11 08:12:50;;;;;;;;;;;;;;;;;;6259770;28;19939;-59
2023/08/11 08:15:51;;;;;;;;;;;;;;;;;;6253312;28;20420;-60
2023/08/11 08:18:51;;;;;;;;;;;;;;;;;;6259134;28;20290;-56
2023/08/11 08:21:52;;;;;;;;;;;;;;;;;;6260236;28;19929;-56
2023/08/11 08:24:52;;;;;;;;;;;;;;;;;;6256863;28;19924;-58
2023/08/11 08:27:53;;;;;;;;;;;;;;;;;;6258879;28;19925;-60
2023/08/11 08:30:53;;;;;;;;;;;;;;;;;;6256931;28;19925;-59
2023/08/11 08:33:54;;;;;;;;;;;;;;;;;;6255904;28;19932;-60
2023/08/11 08:36:54;;;;;;;;;;;;;;;;;;6253071;28;20410;-61
2023/08/11 08:39:55;;;;;;;;;;;;;;;;;;6260096;28;19924;-60
2023/08/11 08:42:57;;;;;;;;;;;;;;;;;;6258677;28;20058;-61
2023/08/11 08:46:01;;;;;;;;;;;;;;;;;;6258073;28;20210;-59
2023/08/11 08:49:08;;;;;;;;;;;;;;;;;;6260123;28;20349;-60
2023/08/11 08:52:08;;;;;;;;;;;;;;;;;;6257890;28;20782;-60
2023/08/11 08:55:09;;;;;;;;;;;;;;;;;;6257103;28;19935;-59
2023/08/11 08:58:12;;;;;;;;;;;;;;;;;;6260726;28;19928;-59
2023/08/11 09:01:13;;;;;;;;;;;;;;;;;;6258859;28;19932;-61
2023/08/11 09:04:14;;;;;;;;;;;;;;;;;;6253572;28;20552;-59
2023/08/11 09:07:15;;;;;;;;;;;;;;;;;;6257931;28;19933;-60
2023/08/11 09:10:16;;;;;;;;;;;;;;;;;;6256005;28;19924;-61
2023/08/11 09:13:16;;;;;;;;;;;;;;;;;;6258678;28;19928;-60
2023/08/11 09:16:19;;;;;;;;;;;;;;;;;;6258647;28;19977;-57
2023/08/11 09:19:20;;;;;;;;;;;;;;;;;;6263958;28;20619;-59
2023/08/11 09:22:24;;;;;;;;;;;;;;;;;;6261454;28;19994;-59
2023/08/11 09:25:24;;;;;;;;;;;;;;;;;;6259116;28;20401;-60
2023/08/11 09:28:25;;;;;;;;;;;;;;;;;;6256766;28;19933;-58
2023/08/11 09:31:25;;;;;;;;;;;;;;;;;;6254399;28;19936;-59
2023/08/11 09:34:26;;;;;;;;;;;;;;;;;;6258758;28;19929;-57
2023/08/11 09:37:26;;;;;;;;;;;;;;;;;;6256184;28;19924;-59
2023/08/11 09:40:27;;;;;;;;;;;;;;;;;;6260285;28;20424;-60
2023/08/11 09:43:29;;;;;;;;;;;;;;;;;;6249099;28;20484;-58
2023/08/11 09:46:29;;;;;;;;;;;;;;;;;;6254672;28;19935;-56
2023/08/11 09:49:30;;;;;;;;;;;;;;;;;;6259015;28;20274;-57
2023/08/11 09:52:33;;;;;;;;;;;;;;;;;;6258794;28;19939;-56
2023/08/11 09:55:35;;;;;;;;;;;;;;;;;;6253425;28;19925;-54
2023/08/11 09:58:37;;;;;;;;;;;;;;;;;;6255787;28;19924;-56
2023/08/11 10:01:39;;;;;;;;;;;;;;;;;;6255133;28;19935;-57
2023/08/11 10:04:46;;;;;;;;;;;;;;;;;;6256692;28;19929;-59
2023/08/11 10:07:46;;;;;;;;;;;;;;;;;;6239066;28;19982;-56
2023/08/11 10:10:47;;;;;;;;;;;;;;;;;;6239059;28;19986;-60
2023/08/11 10:13:48;;;;;;;;;;;;;;;;;;6239813;28;19935;-58
2023/08/11 10:16:49;;;;;;;;;;;;;;;;;;6236485;28;19929;-59
2023/08/11 10:19:50;;;;;;;;;;;;;;;;;;6238984;28;19972;-58
2023/08/11 10:22:51;;;;;;;;;;;;;;;;;;6240715;28;20294;-59
2023/08/11 10:25:52;;;;;;;;;;;;;;;;;;6252047;28;19929;-59
2023/08/11 10:28:52;;;;;;;;;;;;;;;;;;6254382;28;19956;-60
2023/08/11 10:31:54;;;;;;;;;;;;;;;;;;6253912;28;20366;-60
2023/08/11 10:34:56;;;;;;;;;;;;;;;;;;6252309;28;19920;-57
2023/08/11 10:37:57;;;;;;;;;;;;;;;;;;6252590;28;20299;-58
2023/08/11 10:41:05;;;;;;;;;;;;;;;;;;6235189;28;19935;-58
2023/08/11 10:44:06;;;;;;;;;;;;;;;;;;6254722;28;19929;-56
2023/08/11 10:47:06;;;;;;;;;;;;;;;;;;6250776;28;20268;-59
2023/08/11 10:50:07;;;;;;;;;;;;;;;;;;6253805;28;19926;-58
2023/08/11 10:53:18;;;;;;;;;;;;;;;;;;6253638;28;20390;-60
2023/08/11 10:56:26;;;;;;;;;;;;;;;;;;6250374;28;19929;-60
2023/08/11 10:59:31;;;;;;;;;;;;;;;;;;6253161;28;19929;-58
2023/08/11 11:02:33;;;;;;;;;;;;;;;;;;6253571;28;19997;-60
2023/08/11 11:05:33;;;;;;;;;;;;;;;;;;6251233;28;19951;-59
2023/08/11 11:08:34;;;;;;;;;;;;;;;;;;6253277;28;19924;-55
2023/08/11 11:11:36;;;;;;;;;;;;;;;;;;6252642;28;20438;-60
2023/08/11 11:14:37;;;;;;;;;;;;;;;;;;6253518;28;19924;-59
2023/08/11 11:17:37;;;;;;;;;;;;;;;;;;6251784;28;19947;-59
2023/08/11 11:20:38;;;;;;;;;;;;;;;;;;6252934;28;19928;-60
2023/08/11 11:23:42;;;;;;;;;;;;;;;;;;6253655;28;20462;-60
2023/08/11 11:26:43;;;;;;;;;;;;;;;;;;6251868;28;20019;-61
2023/08/11 11:29:43;;;;;;;;;;;;;;;;;;6251692;28;19929;-59
2023/08/11 11:32:46;;;;;;;;;;;;;;;;;;6246155;28;19925;-59
2023/08/11 11:35:46;;;;;;;;;;;;;;;;;;6248358;28;20358;-59
2023/08/11 11:38:47;;;;;;;;;;;;;;;;;;6229755;28;19921;-57
2023/08/11 11:41:48;;;;;;;;;;;;;;;;;;6234155;28;20023;-59
2023/08/11 11:44:48;;;;;;;;;;;;;;;;;;6239193;28;19924;-55
2023/08/11 11:47:49;;;;;;;;;;;;;;;;;;6240132;28;19988;-56
2023/08/11 11:50:50;;;;;;;;;;;;;;;;;;6238141;28;19929;-58
2023/08/11 11:53:51;;;;;;;;;;;;;;;;;;6235414;28;19971;-58
2023/08/11 11:56:52;;;;;;;;;;;;;;;;;;6238465;28;19979;-59
2023/08/11 11:59:53;;;;;;;;;;;;;;;;;;6238342;28;19921;-58
2023/08/11 12:02:54;;;;;;;;;;;;;;;;;;6236941;28;19921;-59
2023/08/11 12:05:55;;;;;;;;;;;;;;;;;;6239413;28;19925;-59
2023/08/11 12:09:04;;;;;;;;;;;;;;;;;;6240133;28;20004;-59
2023/08/11 12:12:05;;;;;;;;;;;;;;;;;;6236968;28;19929;-59
2023/08/11 12:15:06;;;;;;;;;;;;;;;;;;6241072;28;20159;-58
2023/08/11 12:18:07;;;;;;;;;;;;;;;;;;6234770;28;19925;-59
2023/08/11 12:21:10;;;;;;;;;;;;;;;;;;6235906;28;19983;-60
2023/08/11 12:24:12;;;;;;;;;;;;;;;;;;6241210;28;19924;-59
2023/08/11 12:27:13;;;;;;;;;;;;;;;;;;6244346;28;20323;-58
2023/08/11 12:30:15;;;;;;;;;;;;;;;;;;6244214;28;19920;-60
2023/08/11 12:33:16;;;;;;;;;;;;;;;;;;6243690;28;19921;-59
2023/08/11 12:36:16;;;;;;;;;;;;;;;;;;6244454;28;19976;-59
2023/08/11 12:39:17;;;;;;;;;;;;;;;;;;6244785;28;19921;-59
2023/08/11 12:42:17;;;;;;;;;;;;;;;;;;6242642;28;20168;-59
2023/08/11 12:45:18;;;;;;;;;;;;;;;;;;6240731;28;19925;-58
2023/08/11 12:48:19;;;;;;;;;;;;;;;;;;6244992;28;19972;-59
2023/08/11 12:51:19;;;;;;;;;;;;;;;;;;6243830;28;19925;-58
2023/08/11 12:54:20;;;;;;;;;;;;;;;;;;6241261;28;19921;-59
2023/08/11 12:57:20;;;;;;;;;;;;;;;;;;6244486;28;19920;-59
2023/08/11 13:00:21;;;;;;;;;;;;;;;;;;6250509;28;19948;-59
2023/08/11 13:03:21;;;;;;;;;;;;;;;;;;6226387;28;19925;-58
2023/08/11 13:06:22;;;;;;;;;;;;;;;;;;6240271;28;19929;-59
2023/08/11 13:09:22;;;;;;;;;;;;;;;;;;6244427;28;20268;-59
2023/08/11 13:12:23;;;;;;;;;;;;;;;;;;6237928;28;19921;-56
2023/08/11 13:15:23;;;;;;;;;;;;;;;;;;6242684;28;19922;-56
2023/08/11 13:18:24;;;;;;;;;;;;;;;;;;6241351;28;19943;-57
2023/08/11 13:21:24;;;;;;;;;;;;;;;;;;6237966;28;19920;-59
2023/08/11 13:24:25;;;;;;;;;;;;;;;;;;6236082;28;19924;-60
2023/08/11 13:27:25;;;;;;;;;;;;;;;;;;6233961;28;20343;-60
2023/08/11 13:30:27;;;;;;;;;;;;;;;;;;6240168;28;21441;-59
2023/08/11 13:33:27;;;;;;;;;;;;;;;;;;6234370;28;19972;-58
2023/08/11 13:36:28;;;;;;;;;;;;;;;;;;6240167;28;20384;-58
2023/08/11 13:39:28;;;;;;;;;;;;;;;;;;6261017;28;19986;-58
2023/08/11 13:42:29;;;;;;;;;;;;;;;;;;6257622;28;19925;-58
2023/08/11 13:45:29;;;;;;;;;;;;;;;;;;6258570;28;19939;-58
2023/08/11 13:48:30;;;;;;;;;;;;;;;;;;6260005;28;20305;-57
2023/08/11 13:51:32;;;;;;;;;;;;;;;;;;6260650;28;19929;-58
2023/08/11 13:54:33;;;;;;;;;;;;;;;;;;6261856;28;19921;-58
2023/08/11 13:57:33;;;;;;;;;;;;;;;;;;6258301;28;19928;-57
2023/08/11 14:00:34;;;;;;;;;;;;;;;;;;6260394;28;20577;-58
2023/08/11 14:03:34;;;;;;;;;;;;;;;;;;6257753;28;20393;-59
2023/08/11 14:06:35;;;;;;;;;;;;;;;;;;6259352;28;19924;-59
2023/08/11 14:09:35;;;;;;;;;;;;;;;;;;6265038;28;19921;-58
2023/08/11 14:12:36;;;;;;;;;;;;;;;;;;6256062;28;19921;-59
2023/08/11 14:15:36;;;;;;;;;;;;;;;;;;6257839;28;19929;-59
2023/08/11 14:18:39;;;;;;;;;;;;;;;;;;6246389;28;20340;-59
2023/08/11 14:21:39;;;;;;;;;;;;;;;;;;6257310;28;20363;-59
2023/08/11 14:24:40;;;;;;;;;;;;;;;;;;6259500;28;19925;-59
2023/08/11 14:27:40;;;;;;;;;;;;;;;;;;6259462;28;19929;-59
2023/08/11 14:30:41;;;;;;;;;;;;;;;;;;6260279;28;19971;-59
2023/08/11 14:33:42;;;;;;;;;;;;;;;;;;6266251;28;19928;-57
2023/08/11 14:36:42;;;;;;;;;;;;;;;;;;6273981;28;19927;-59
2023/08/11 14:39:43;;;;;;;;;;;;;;;;;;6273067;28;19932;-58
2023/08/11 14:42:43;;;;;;;;;;;;;;;;;;6271895;28;19931;-57
2023/08/11 14:45:44;;;;;;;;;;;;;;;;;;6276821;28;19920;-57
2023/08/11 14:48:44;;;;;;;;;;;;;;;;;;6265126;28;19920;-57
2023/08/11 14:51:45;;;;;;;;;;;;;;;;;;6261952;28;19936;-58
2023/08/11 14:54:45;;;;;;;;;;;;;;;;;;6275645;28;20368;-56
2023/08/11 14:57:46;;;;;;;;;;;;;;;;;;6266087;28;19925;-59
2023/08/11 15:00:47;;;;;;;;;;;;;;;;;;6265727;28;19924;-63
2023/08/11 15:03:48;;;;;;;;;;;;;;;;;;6265198;28;19932;-57
2023/08/11 15:06:49;;;;;;;;;;;;;;;;;;6267827;28;19974;-57
2023/08/11 15:09:49;;;;;;;;;;;;;;;;;;6271623;28;19928;-59
2023/08/11 15:12:50;;;;;;;;;;;;;;;;;;6265228;28;19928;-56
2023/08/11 15:15:50;;;;;;;;;;;;;;;;;;6274433;28;19976;-55
2023/08/11 15:18:51;;;;;;;;;;;;;;;;;;6260986;28;19920;-57
2023/08/11 15:21:51;;;;;;;;;;;;;;;;;;6261418;28;19928;-58
2023/08/11 15:24:52;;;;;;;;;;;;;;;;;;6274455;28;19920;-55
2023/08/11 15:27:52;;;;;;;;;;;;;;;;;;6259455;28;20345;-58
2023/08/11 15:30:53;;;;;;;;;;;;;;;;;;6265089;28;19939;-56
2023/08/11 15:33:53;;;;;;;;;;;;;;;;;;6262681;28;19920;-59
2023/08/11 15:36:54;;;;;;;;;;;;;;;;;;6269837;28;19921;-58
2023/08/11 15:39:54;;;;;;;;;;;;;;;;;;6267942;28;19927;-59
2023/08/11 15:42:55;;;;;;;;;;;;;;;;;;6266445;28;19925;-58
2023/08/11 15:45:56;;;;;;;;;;;;;;;;;;6267714;28;19925;-58
2023/08/11 15:48:57;;;;;;;;;;;;;;;;;;6274053;28;20394;-59
2023/08/11 15:51:58;;;;;;;;;;;;;;;;;;6263462;28;19928;-58
2023/08/11 15:54:59;;;;;;;;;;;;;;;;;;6268880;28;19936;-61
2023/08/11 15:57:59;;;;;;;;;;;;;;;;;;6267026;28;20363;-58
2023/08/11 16:01:02;;;;;;;;;;;;;;;;;;6270440;28;20290;-54
2023/08/11 16:04:03;;;;;;;;;;;;;;;;;;6270480;28;19963;-59
2023/08/11 16:07:03;;;;;;;;;;;;;;;;;;6269750;28;19927;-58
2023/08/11 16:10:04;;;;;;;;;;;;;;;;;;6269699;28;19920;-59
2023/08/11 16:13:05;;;;;;;;;;;;;;;;;;6268963;28;20275;-60
2023/08/11 16:16:07;;;;;;;;;;;;;;;;;;6263357;28;19921;-58
2023/08/11 16:19:08;;;;;;;;;;;;;;;;;;6269364;28;19932;-59
2023/08/11 16:22:08;;;;;;;;;;;;;;;;;;6260396;28;20263;-59
2023/08/11 16:25:09;;;;;;;;;;;;;;;;;;6252602;28;19971;-57
2023/08/11 16:28:09;;;;;;;;;;;;;;;;;;6262057;28;19921;-58
2023/08/11 16:31:12;;;;;;;;;;;;;;;;;;6260242;28;19959;-59
2023/08/11 16:34:12;;;;;;;;;;;;;;;;;;6251192;28;19941;-58
2023/08/11 16:37:13;;;;;;;;;;;;;;;;;;6239713;28;20045;-57
2023/08/11 16:40:14;;;;;;;;;;;;;;;;;;6227483;28;20024;-54
2023/08/11 16:43:14;;;;;;;;;;;;;;;;;;6229930;28;19964;-54
2023/08/11 16:46:15;;;;;;;;;;;;;;;;;;6228427;28;19951;-59
2023/08/11 16:49:16;;;;;;;;;;;;;;;;;;6227972;28;19971;-58
2023/08/11 16:52:16;;;;;;;;;;;;;;;;;;6222329;28;19929;-60
2023/08/11 16:55:17;;;;;;;;;;;;;;;;;;6222947;28;19936;-57
2023/08/11 16:58:18;;;;;;;;;;;;;;;;;;6222398;28;20288;-56
2023/08/11 17:01:19;;;;;;;;;;;;;;;;;;6224915;28;19929;-59
2023/08/11 17:04:19;;;;;;;;;;;;;;;;;;6226324;28;20384;-53
2023/08/11 17:07:20;;;;;;;;;;;;;;;;;;6224319;28;19940;-55
2023/08/11 17:10:20;;;;;;;;;;;;;;;;;;6227812;28;20396;-57
2023/08/11 17:16:27;;;;;;;;;;;;;;;;;;6213319;28;20342;-55
2023/08/11 17:19:29;;;;;;;;;;;;;;;;;;6216521;28;19927;-56
2023/08/11 17:22:30;;;;;;;;;;;;;;;;;;6212589;28;19929;-57
2023/08/11 17:25:30;;;;;;;;;;;;;;;;;;6219158;28;20031;-56
2023/08/11 17:28:31;;;;;;;;;;;;;;;;;;6218058;28;19936;-60
2023/08/11 17:31:32;;;;;;;;;;;;;;;;;;6219923;28;19929;-60
2023/08/11 17:34:32;;;;;;;;;;;;;;;;;;6215949;28;19988;-60
2023/08/11 17:37:32;;;;;;;;;;;;;;;;;;6217430;28;19925;-59
2023/08/11 17:40:33;;;;;;;;;;;;;;;;;;6215494;28;19933;-59
2023/08/11 17:43:33;;;;;;;;;;;;;;;;;;6212758;28;19929;-60
2023/08/11 17:46:34;;;;;;;;;;;;;;;;;;6219332;28;19924;-58
2023/08/11 17:49:35;;;;;;;;;;;;;;;;;;6213040;28;19925;-58
2023/08/11 17:52:35;;;;;;;;;;;;;;;;;;6217291;28;19929;-58
2023/08/11 17:55:36;;;;;;;;;;;;;;;;;;6220142;28;20130;-59
2023/08/11 17:58:36;;;;;;;;;;;;;;;;;;6216971;28;19925;-58
2023/08/11 18:01:37;;;;;;;;;;;;;;;;;;6219589;28;19988;-59
2023/08/11 18:04:37;;;;;;;;;;;;;;;;;;6213399;28;20708;-57
2023/08/11 18:07:38;;;;;;;;;;;;;;;;;;6218609;28;19925;-59
2023/08/11 18:10:38;;;;;;;;;;;;;;;;;;6215808;28;19936;-58
2023/08/11 18:13:39;;;;;;;;;;;;;;;;;;6233450;28;21156;-58
2023/08/11 18:16:39;;;;;;;;;;;;;;;;;;6242305;28;19925;-59
2023/08/11 18:19:40;;;;;;;;;;;;;;;;;;6239010;28;20032;-59
2023/08/11 18:22:40;;;;;;;;;;;;;;;;;;6232257;28;19932;-57
2023/08/11 18:25:42;;;;;;;;;;;;;;;;;;6237944;28;19929;-59
2023/08/11 18:28:42;;;;;;;;;;;;;;;;;;6237785;28;19921;-52
2023/08/11 18:31:43;;;;;;;;;;;;;;;;;;6238228;28;19959;-55
2023/08/11 18:34:44;;;;;;;;;;;;;;;;;;6237244;28;19972;-55
2023/08/11 18:37:44;;;;;;;;;;;;;;;;;;6236701;28;19929;-57
2023/08/11 18:40:46;;;;;;;;;;;;;;;;;;6239431;28;19928;-56
2023/08/11 18:43:47;;;;;;;;;;;;;;;;;;6229199;28;19925;-59
2023/08/11 18:46:47;;;;;;;;;;;;;;;;;;6238808;28;19924;-59
2023/08/11 18:49:48;;;;;;;;;;;;;;;;;;6234942;28;19925;-56
2023/08/11 18:52:50;;;;;;;;;;;;;;;;;;6232956;28;19921;-58
2023/08/11 18:55:50;;;;;;;;;;;;;;;;;;6235859;28;19928;-59
2023/08/11 18:58:51;;;;;;;;;;;;;;;;;;6230541;28;19932;-59
2023/08/11 19:01:51;;;;;;;;;;;;;;;;;;6233794;28;19925;-57
2023/08/11 19:04:52;;;;;;;;;;;;;;;;;;6236883;28;20393;-60
2023/08/11 19:07:52;;;;;;;;;;;;;;;;;;6230679;28;20473;-59
2023/08/11 19:10:53;;;;;;;;;;;;;;;;;;6224823;28;20088;-59
2023/08/11 19:13:54;;;;;;;;;;;;;;;;;;6234949;28;19991;-59
2023/08/11 19:16:55;;;;;;;;;;;;;;;;;;6251944;28;19925;-59
2023/08/11 19:19:56;;;;;;;;;;;;;;;;;;6240074;28;19925;-58
2023/08/11 19:22:56;;;;;;;;;;;;;;;;;;6231688;28;19931;-58
2023/08/11 19:25:57;;;;;;;;;;;;;;;;;;6239377;28;19921;-57
2023/08/11 19:28:58;;;;;;;;;;;;;;;;;;6241610;28;20311;-58
2023/08/11 19:31:59;;;;;;;;;;;;;;;;;;6244254;28;19929;-58
2023/08/11 19:34:59;;;;;;;;;;;;;;;;;;6231760;28;19928;-60
2023/08/11 19:38:00;;;;;;;;;;;;;;;;;;6230354;28;20424;-58
2023/08/11 19:41:01;;;;;;;;;;;;;;;;;;6247833;28;19978;-60
2023/08/11 19:44:01;;;;;;;;;;;;;;;;;;6242793;28;19929;-59
2023/08/11 19:47:02;;;;;;;;;;;;;;;;;;6255032;28;19924;-58
2023/08/11 19:50:03;;;;;;;;;;;;;;;;;;6251849;28;19929;-56
2023/08/11 19:53:03;;;;;;;;;;;;;;;;;;6245329;28;19932;-55
2023/08/11 19:56:04;;;;;;;;;;;;;;;;;;6244237;28;19925;-58
2023/08/11 19:59:04;;;;;;;;;;;;;;;;;;6238115;28;19924;-59
2023/08/11 20:02:05;;;;;;;;;;;;;;;;;;6230168;28;19921;-56
2023/08/11 20:05:05;;;;;;;;;;;;;;;;;;6249610;28;19967;-53
2023/08/11 20:08:06;;;;;;;;;;;;;;;;;;6249175;28;19925;-55
2023/08/11 20:11:06;;;;;;;;;;;;;;;;;;6236828;28;19921;-56
2023/08/11 20:14:07;;;;;;;;;;;;;;;;;;6236128;28;19921;-60
2023/08/11 20:17:08;;;;;;;;;;;;;;;;;;6239232;28;19921;-53
2023/08/11 20:20:09;;;;;;;;;;;;;;;;;;6237317;28;19927;-59
2023/08/11 20:23:09;;;;;;;;;;;;;;;;;;6235835;28;19921;-57
2023/08/11 20:26:10;;;;;;;;;;;;;;;;;;6238339;28;19928;-55
2023/08/11 20:29:11;;;;;;;;;;;;;;;;;;6239348;28;19921;-54
2023/08/11 20:32:11;;;;;;;;;;;;;;;;;;6236208;28;20372;-54
2023/08/11 20:35:12;;;;;;;;;;;;;;;;;;6236097;28;19932;-58
2023/08/11 20:38:12;;;;;;;;;;;;;;;;;;6236530;28;19925;-55
2023/08/11 20:41:13;;;;;;;;;;;;;;;;;;6235299;28;19929;-56